createdAt,value
2018-01-26T00:01:06.890Z,7.58
2018-01-26T00:03:35.307Z,7.53
2018-01-26T00:06:03.887Z,7.55
2018-01-26T00:08:32.265Z,7.49
2018-01-26T00:11:00.684Z,7.49
2018-01-26T00:13:29.102Z,7.37
2018-01-26T00:15:57.482Z,7.40
2018-01-26T00:18:25.866Z,7.36
2018-01-26T00:20:54.382Z,7.31
2018-01-26T00:23:22.870Z,7.24
2018-01-26T00:25:51.310Z,7.29
2018-01-26T00:28:19.750Z,7.32
2018-01-26T00:30:48.179Z,7.36
2018-01-26T00:33:16.573Z,7.35
2018-01-26T00:35:45.089Z,7.34
2018-01-26T00:38:13.503Z,7.28
2018-01-26T00:40:41.892Z,7.15
2018-01-26T00:43:10.324Z,7.09
2018-01-26T00:45:38.715Z,7.10
2018-01-26T00:48:07.089Z,7.07
2018-01-26T00:50:35.628Z,7.08
2018-01-26T00:53:04.012Z,7.08
2018-01-26T00:55:32.457Z,7.07
2018-01-26T00:58:00.927Z,7.08
2018-01-26T01:00:29.421Z,7.09
2018-01-26T01:02:57.814Z,7.07
2018-01-26T01:05:26.293Z,7.05
2018-01-26T01:07:54.677Z,7.05
2018-01-26T01:10:23.086Z,7.08
2018-01-26T01:12:51.560Z,7.05
2018-01-26T01:15:19.959Z,7.04
2018-01-26T01:17:48.349Z,6.97
2018-01-26T01:20:16.792Z,6.99
2018-01-26T01:22:45.185Z,7.03
2018-01-26T01:25:13.562Z,7.03
2018-01-26T01:27:41.984Z,7.02
2018-01-26T01:30:10.359Z,7.04
2018-01-26T01:32:38.731Z,7.04
2018-01-26T01:35:07.145Z,7.03
2018-01-26T01:37:35.514Z,7.04
2018-01-26T01:40:03.921Z,7.04
2018-01-26T01:42:32.344Z,7.06
2018-01-26T01:45:00.730Z,7.04
2018-01-26T01:47:29.107Z,7.08
2018-01-26T01:49:57.743Z,7.01
2018-01-26T01:52:26.150Z,6.99
2018-01-26T01:54:54.530Z,7.00
2018-01-26T01:57:22.948Z,6.97
2018-01-26T01:59:51.369Z,6.93
2018-01-26T02:02:19.740Z,6.90
2018-01-26T02:04:48.165Z,6.93
2018-01-26T02:07:16.567Z,6.96
2018-01-26T02:09:44.945Z,6.94
2018-01-26T02:12:13.400Z,6.97
2018-01-26T02:14:41.819Z,7.03
2018-01-26T02:17:10.302Z,6.98
2018-01-26T02:19:38.864Z,6.99
2018-01-26T02:22:07.247Z,6.97
2018-01-26T02:24:35.651Z,7.01
2018-01-26T02:27:04.078Z,6.96
2018-01-26T02:29:32.444Z,6.97
2018-01-26T02:32:00.831Z,6.96
2018-01-26T02:34:29.246Z,6.96
2018-01-26T02:36:57.631Z,6.97
2018-01-26T02:39:26.014Z,6.98
2018-01-26T02:41:54.441Z,6.95
2018-01-26T02:44:22.836Z,6.95
2018-01-26T02:46:51.210Z,6.95
2018-01-26T02:49:19.637Z,6.98
2018-01-26T02:51:48.036Z,6.99
2018-01-26T02:54:16.495Z,6.96
2018-01-26T02:56:45.102Z,6.92
2018-01-26T02:59:13.501Z,6.88
2018-01-26T03:01:41.898Z,6.83
2018-01-26T03:04:10.327Z,6.88
2018-01-26T03:06:38.710Z,6.90
2018-01-26T03:09:07.206Z,6.90
2018-01-26T03:11:35.680Z,6.89
2018-01-26T03:14:04.112Z,6.90
2018-01-26T03:16:32.509Z,6.89
2018-01-26T03:19:00.948Z,6.89
2018-01-26T03:21:29.344Z,6.87
2018-01-26T03:23:57.731Z,6.83
2018-01-26T03:26:26.163Z,6.87
2018-01-26T03:28:54.543Z,6.88
2018-01-26T03:31:22.914Z,6.86
2018-01-26T03:33:51.364Z,6.83
2018-01-26T03:36:19.744Z,6.84
2018-01-26T03:38:48.110Z,6.86
2018-01-26T03:41:16.536Z,6.85
2018-01-26T03:43:44.914Z,6.83
2018-01-26T03:46:13.285Z,6.82
2018-01-26T03:48:41.720Z,6.82
2018-01-26T03:51:10.089Z,6.82
2018-01-26T03:53:38.456Z,6.83
2018-01-26T03:56:06.886Z,6.81
2018-01-26T03:58:35.287Z,6.79
2018-01-26T04:01:03.679Z,6.77
2018-01-26T04:03:32.136Z,6.76
2018-01-26T04:06:00.514Z,6.77
2018-01-26T04:08:28.906Z,6.79
2018-01-26T04:10:57.333Z,6.80
2018-01-26T04:13:25.722Z,6.78
2018-01-26T04:15:54.112Z,6.78
2018-01-26T04:18:22.526Z,6.80
2018-01-26T04:20:50.914Z,6.79
2018-01-26T04:23:19.289Z,6.75
2018-01-26T04:25:47.728Z,6.74
2018-01-26T04:28:16.122Z,6.74
2018-01-26T04:30:44.549Z,6.72
2018-01-26T04:33:12.969Z,6.81
2018-01-26T04:35:41.341Z,6.85
2018-01-26T04:38:09.736Z,6.82
2018-01-26T04:40:38.144Z,6.76
2018-01-26T04:43:06.545Z,6.73
2018-01-26T04:45:34.940Z,6.74
2018-01-26T04:48:03.392Z,6.70
2018-01-26T04:50:31.818Z,6.71
2018-01-26T04:53:00.220Z,6.72
2018-01-26T04:55:28.653Z,6.72
2018-01-26T04:57:57.059Z,6.71
2018-01-26T05:00:25.496Z,6.69
2018-01-26T05:02:53.933Z,6.66
2018-01-26T05:05:22.324Z,6.67
2018-01-26T05:07:50.694Z,6.69
2018-01-26T05:10:19.125Z,6.74
2018-01-26T05:12:47.516Z,6.74
2018-01-26T05:15:15.901Z,6.76
2018-01-26T05:17:44.352Z,6.73
2018-01-26T05:20:12.733Z,6.70
2018-01-26T05:22:41.132Z,6.74
2018-01-26T05:25:09.562Z,6.77
2018-01-26T05:27:37.969Z,6.67
2018-01-26T05:30:06.354Z,6.59
2018-01-26T05:32:34.792Z,6.56
2018-01-26T05:35:03.207Z,6.58
2018-01-26T05:37:31.594Z,6.59
2018-01-26T05:40:00.040Z,6.60
2018-01-26T05:42:28.444Z,6.59
2018-01-26T05:44:56.839Z,6.60
2018-01-26T05:47:25.304Z,6.60
2018-01-26T05:49:53.692Z,6.57
2018-01-26T05:52:22.093Z,6.54
2018-01-26T05:54:50.709Z,6.54
2018-01-26T05:57:19.113Z,6.55
2018-01-26T05:59:47.524Z,6.52
2018-01-26T06:02:15.998Z,6.55
2018-01-26T06:04:44.415Z,6.51
2018-01-26T06:07:12.813Z,6.50
2018-01-26T06:09:41.269Z,6.49
2018-01-26T06:12:09.733Z,6.50
2018-01-26T06:14:38.129Z,6.51
2018-01-26T06:17:06.593Z,6.48
2018-01-26T06:19:34.998Z,6.46
2018-01-26T06:22:03.413Z,6.45
2018-01-26T06:24:31.892Z,6.48
2018-01-26T06:27:00.317Z,6.52
2018-01-26T06:29:28.738Z,6.50
2018-01-26T06:31:57.160Z,6.62
2018-01-26T06:34:25.565Z,6.66
2018-01-26T06:36:53.970Z,6.65
2018-01-26T06:39:22.436Z,6.65
2018-01-26T06:41:50.853Z,6.64
2018-01-26T06:44:19.250Z,6.58
2018-01-26T06:46:47.688Z,6.52
2018-01-26T06:49:16.092Z,6.57
2018-01-26T06:51:44.502Z,6.58
2018-01-26T06:54:12.973Z,6.57
2018-01-26T06:56:41.361Z,6.46
2018-01-26T06:59:09.741Z,6.39
2018-01-26T07:01:38.194Z,6.38
2018-01-26T07:04:06.584Z,6.34
2018-01-26T07:06:34.985Z,6.30
2018-01-26T07:09:03.481Z,6.28
2018-01-26T07:11:31.936Z,6.32
2018-01-26T07:14:00.320Z,6.33
2018-01-26T07:16:28.752Z,6.35
2018-01-26T07:18:57.133Z,6.38
2018-01-26T07:21:25.524Z,6.44
2018-01-26T07:23:53.972Z,6.40
2018-01-26T07:26:22.346Z,6.47
2018-01-26T07:28:50.725Z,6.44
2018-01-26T07:31:19.161Z,6.47
2018-01-26T07:33:47.550Z,6.44
2018-01-26T07:36:15.929Z,6.42
2018-01-26T07:38:44.349Z,6.41
2018-01-26T07:41:12.740Z,6.48
2018-01-26T07:43:41.121Z,6.43
2018-01-26T07:46:09.549Z,6.47
2018-01-26T07:48:37.940Z,6.46
2018-01-26T07:51:06.329Z,6.49
2018-01-26T07:53:34.753Z,6.51
2018-01-26T07:56:03.149Z,6.56
2018-01-26T07:58:31.525Z,6.53
2018-01-26T08:01:00.918Z,6.52
2018-01-26T08:03:29.297Z,6.53
2018-01-26T08:05:57.687Z,6.53
2018-01-26T08:08:26.173Z,6.52
2018-01-26T08:10:54.596Z,6.57
2018-01-26T08:13:22.996Z,6.57
2018-01-26T08:15:51.425Z,6.59
2018-01-26T08:18:19.824Z,6.59
2018-01-26T08:20:48.209Z,6.58
2018-01-26T08:23:16.627Z,6.60
2018-01-26T08:25:45.024Z,6.63
2018-01-26T08:28:13.403Z,6.66
2018-01-26T08:30:41.856Z,6.71
2018-01-26T08:33:10.241Z,6.75
2018-01-26T08:35:38.622Z,6.80
2018-01-26T08:38:07.047Z,6.82
2018-01-26T08:40:35.521Z,6.84
2018-01-26T08:43:04.304Z,6.87
2018-01-26T08:45:32.764Z,6.91
2018-01-26T08:48:01.166Z,6.96
2018-01-26T08:50:29.568Z,7.03
2018-01-26T08:52:58.057Z,7.10
2018-01-26T08:55:26.506Z,7.22
2018-01-26T08:57:54.962Z,7.35
2018-01-26T09:00:23.421Z,7.43
2018-01-26T09:02:51.833Z,7.46
2018-01-26T09:05:20.217Z,7.36
2018-01-26T09:07:48.652Z,7.30
2018-01-26T09:10:17.058Z,7.29
2018-01-26T09:12:45.437Z,7.24
2018-01-26T09:15:13.877Z,7.22
2018-01-26T09:17:42.262Z,7.24
2018-01-26T09:20:10.660Z,7.27
2018-01-26T09:22:39.125Z,7.22
2018-01-26T09:25:07.514Z,7.25
2018-01-26T09:27:35.921Z,7.22
2018-01-26T09:30:04.439Z,7.20
2018-01-26T09:32:32.857Z,7.22
2018-01-26T09:35:01.257Z,7.19
2018-01-26T09:37:29.708Z,7.23
2018-01-26T09:39:58.093Z,7.20
2018-01-26T09:42:26.514Z,7.23
2018-01-26T09:44:54.946Z,7.21
2018-01-26T09:47:23.330Z,7.23
2018-01-26T09:49:51.741Z,7.28
2018-01-26T09:52:20.165Z,7.38
2018-01-26T09:54:48.566Z,7.50
2018-01-26T09:57:16.961Z,7.72
2018-01-26T09:59:45.417Z,7.87
2018-01-26T10:02:13.832Z,7.94
2018-01-26T10:04:42.255Z,8.06
2018-01-26T10:07:10.705Z,8.18
2018-01-26T10:09:39.120Z,8.25
2018-01-26T10:12:07.532Z,8.31
2018-01-26T10:14:35.996Z,8.28
2018-01-26T10:17:04.387Z,8.37
2018-01-26T10:19:32.790Z,8.48
2018-01-26T10:22:01.238Z,8.56
2018-01-26T10:24:29.648Z,8.61
2018-01-26T10:26:58.048Z,8.48
2018-01-26T10:29:26.489Z,8.37
2018-01-26T10:31:54.877Z,8.31
2018-01-26T10:34:23.284Z,8.30
2018-01-26T10:36:51.753Z,8.22
2018-01-26T10:39:20.161Z,8.16
2018-01-26T10:41:48.577Z,8.11
2018-01-26T10:44:17.098Z,8.07
2018-01-26T10:46:45.466Z,8.07
2018-01-26T10:49:13.876Z,8.09
2018-01-26T10:51:42.340Z,8.00
2018-01-26T10:54:10.736Z,7.87
2018-01-26T10:56:39.144Z,7.90
2018-01-26T10:59:07.592Z,7.91
2018-01-26T11:01:36.004Z,7.85
2018-01-26T11:04:04.405Z,7.76
2018-01-26T11:06:32.856Z,7.72
2018-01-26T11:09:01.276Z,7.66
2018-01-26T11:11:29.685Z,7.64
2018-01-26T11:13:58.123Z,7.71
2018-01-26T11:16:26.517Z,7.73
2018-01-26T11:18:54.909Z,7.74
2018-01-26T11:21:23.376Z,7.82
2018-01-26T11:23:51.774Z,8.05
2018-01-26T11:26:20.188Z,8.26
2018-01-26T11:28:48.623Z,8.46
2018-01-26T11:31:17.022Z,8.66
2018-01-26T11:33:45.414Z,8.84
2018-01-26T11:36:13.865Z,8.84
2018-01-26T11:38:42.270Z,8.89
2018-01-26T11:41:10.677Z,8.80
2018-01-26T11:43:39.128Z,8.71
2018-01-26T11:46:07.560Z,8.69
2018-01-26T11:48:35.972Z,8.82
2018-01-26T11:51:04.438Z,8.86
2018-01-26T11:53:32.835Z,8.74
2018-01-26T11:56:01.224Z,8.76
2018-01-26T11:58:29.678Z,8.67
2018-01-26T12:00:58.107Z,8.65
2018-01-26T12:03:26.528Z,8.61
2018-01-26T12:05:54.977Z,8.70
2018-01-26T12:08:23.387Z,8.80
2018-01-26T12:10:51.778Z,8.82
2018-01-26T12:13:20.222Z,8.87
2018-01-26T12:15:48.645Z,8.99
2018-01-26T12:18:17.033Z,9.13
2018-01-26T12:20:45.457Z,9.14
2018-01-26T12:23:13.866Z,9.06
2018-01-26T12:25:42.318Z,8.95
2018-01-26T12:28:10.818Z,8.93
2018-01-26T12:30:39.263Z,8.91
2018-01-26T12:33:07.664Z,8.73
2018-01-26T12:35:36.106Z,8.65
2018-01-26T12:38:04.522Z,8.67
2018-01-26T12:40:32.936Z,8.53
2018-01-26T12:43:01.404Z,8.54
2018-01-26T12:45:29.826Z,8.64
2018-01-26T12:47:58.254Z,8.62
2018-01-26T12:50:26.702Z,8.64
2018-01-26T12:52:55.138Z,8.68
2018-01-26T12:55:23.561Z,8.71
2018-01-26T12:57:52.012Z,8.72
2018-01-26T13:00:20.438Z,8.61
2018-01-26T13:02:48.833Z,8.63
2018-01-26T13:05:17.305Z,8.61
2018-01-26T13:07:45.712Z,8.60
2018-01-26T13:10:14.140Z,8.64
2018-01-26T13:12:42.602Z,8.63
2018-01-26T13:15:11.817Z,8.62
2018-01-26T13:17:40.205Z,8.64
2018-01-26T13:20:08.692Z,8.59
2018-01-26T13:22:37.108Z,8.60
2018-01-26T13:25:05.521Z,8.51
2018-01-26T13:27:33.975Z,8.47
2018-01-26T13:30:02.392Z,8.46
2018-01-26T13:32:30.785Z,8.47
2018-01-26T13:34:59.244Z,8.52
2018-01-26T13:37:27.637Z,8.53
2018-01-26T13:39:56.054Z,8.55
2018-01-26T13:42:24.548Z,8.54
2018-01-26T13:44:52.961Z,8.56
2018-01-26T13:47:21.355Z,8.58
2018-01-26T13:49:49.791Z,8.49
2018-01-26T13:52:18.213Z,8.52
2018-01-26T13:54:46.613Z,8.49
2018-01-26T13:57:15.089Z,8.48
2018-01-26T13:59:43.521Z,8.46
2018-01-26T14:02:11.950Z,8.38
2018-01-26T14:04:40.390Z,8.47
2018-01-26T14:07:08.796Z,8.44
2018-01-26T14:09:37.198Z,8.49
2018-01-26T14:12:05.637Z,8.51
2018-01-26T14:14:34.055Z,8.47
2018-01-26T14:17:02.469Z,8.43
2018-01-26T14:19:31.150Z,8.46
2018-01-26T14:21:59.578Z,8.48
2018-01-26T14:24:27.993Z,8.55
2018-01-26T14:26:56.643Z,8.51
2018-01-26T14:29:25.062Z,8.48
2018-01-26T14:31:53.466Z,8.48
2018-01-26T14:34:21.954Z,8.47
2018-01-26T14:36:50.350Z,8.53
2018-01-26T14:39:18.746Z,8.53
2018-01-26T14:41:47.205Z,8.52
2018-01-26T14:44:15.620Z,8.62
2018-01-26T14:46:44.020Z,8.61
2018-01-26T14:49:12.486Z,8.58
2018-01-26T14:51:40.889Z,8.64
2018-01-26T14:54:09.300Z,8.59
2018-01-26T14:56:37.725Z,8.49
2018-01-26T14:59:06.141Z,8.50
2018-01-26T15:01:34.553Z,8.45
2018-01-26T15:04:03.065Z,8.41
2018-01-26T15:06:31.481Z,8.41
2018-01-26T15:09:00.052Z,8.32
2018-01-26T15:11:28.790Z,8.31
2018-01-26T15:13:57.186Z,8.24
2018-01-26T15:16:25.593Z,8.24
2018-01-26T15:18:54.032Z,8.26
2018-01-26T15:21:22.435Z,8.26
2018-01-26T15:23:50.881Z,8.22
2018-01-26T15:26:19.333Z,8.17
2018-01-26T15:28:47.766Z,8.14
2018-01-26T15:31:16.159Z,8.11
2018-01-26T15:33:44.629Z,8.10
2018-01-26T15:36:13.031Z,8.14
2018-01-26T15:38:41.445Z,8.13
2018-01-26T15:41:09.919Z,8.14
2018-01-26T15:43:38.346Z,8.14
2018-01-26T15:46:06.756Z,8.08
2018-01-26T15:48:35.208Z,8.07
2018-01-26T15:51:03.613Z,8.05
2018-01-26T15:53:32.043Z,8.04
2018-01-26T15:56:00.482Z,8.03
2018-01-26T15:58:28.903Z,8.04
2018-01-26T16:00:57.316Z,8.06
2018-01-26T16:03:25.765Z,7.95
2018-01-26T16:05:54.167Z,7.98
2018-01-26T16:08:22.609Z,7.98
2018-01-26T16:10:51.049Z,7.92
2018-01-26T16:13:19.446Z,7.91
2018-01-26T16:15:59.585Z,7.92
2018-01-26T16:18:27.975Z,7.91
2018-01-26T16:20:56.373Z,7.84
2018-01-26T16:23:24.831Z,7.83
2018-01-26T16:25:53.226Z,7.85
2018-01-26T16:28:21.613Z,7.86
2018-01-26T16:30:50.078Z,7.84
2018-01-26T16:33:18.507Z,7.84
2018-01-26T16:35:46.906Z,7.79
2018-01-26T16:38:15.334Z,7.87
2018-01-26T16:40:43.748Z,7.78
2018-01-26T16:43:12.177Z,7.80
2018-01-26T16:45:40.638Z,7.84
2018-01-26T16:48:09.078Z,7.82
2018-01-26T16:50:37.475Z,7.81
2018-01-26T16:53:05.914Z,7.79
2018-01-26T16:55:34.345Z,7.75
2018-01-26T16:58:02.747Z,7.75
2018-01-26T17:00:31.208Z,7.75
2018-01-26T17:02:59.597Z,7.73
2018-01-26T17:05:28.019Z,7.74
2018-01-26T17:07:56.465Z,7.71
2018-01-26T17:10:24.876Z,7.72
2018-01-26T17:12:53.296Z,7.69
2018-01-26T17:15:21.748Z,7.64
2018-01-26T17:17:50.143Z,7.61
2018-01-26T17:20:18.534Z,7.64
2018-01-26T17:22:47.200Z,7.58
2018-01-26T17:25:15.615Z,7.57
2018-01-26T17:27:44.049Z,7.55
2018-01-26T17:30:12.505Z,7.52
2018-01-26T17:32:40.898Z,7.51
2018-01-26T17:35:09.313Z,7.52
2018-01-26T17:37:37.762Z,7.51
2018-01-26T17:40:06.166Z,7.48
2018-01-26T17:42:34.564Z,7.43
2018-01-26T17:45:03.014Z,7.39
2018-01-26T17:47:31.409Z,7.36
2018-01-26T17:49:59.808Z,7.30
2018-01-26T17:52:28.417Z,7.25
2018-01-26T17:54:56.857Z,7.21
2018-01-26T17:57:25.252Z,7.15
2018-01-26T17:59:53.718Z,7.12
2018-01-26T18:02:22.161Z,7.15
2018-01-26T18:04:50.653Z,7.10
2018-01-26T18:07:19.169Z,7.06
2018-01-26T18:09:47.582Z,6.97
2018-01-26T18:12:15.970Z,6.96
2018-01-26T18:14:44.422Z,6.96
2018-01-26T18:17:12.840Z,6.91
2018-01-26T18:19:41.230Z,6.84
2018-01-26T18:22:09.695Z,6.75
2018-01-26T18:24:38.095Z,6.66
2018-01-26T18:27:06.513Z,6.58
2018-01-26T18:29:35.161Z,6.58
2018-01-26T18:32:03.567Z,6.63
2018-01-26T18:34:32.010Z,6.65
2018-01-26T18:37:01.500Z,6.62
2018-01-26T18:39:29.897Z,6.53
2018-01-26T18:41:58.316Z,6.50
2018-01-26T18:44:26.968Z,6.51
2018-01-26T18:46:55.401Z,6.52
2018-01-26T18:49:23.837Z,6.51
2018-01-26T18:51:52.312Z,6.51
2018-01-26T18:54:20.705Z,6.54
2018-01-26T18:56:49.118Z,6.54
2018-01-26T18:59:17.586Z,6.51
2018-01-26T19:01:45.985Z,6.48
2018-01-26T19:04:14.385Z,6.43
2018-01-26T19:06:42.841Z,6.40
2018-01-26T19:09:11.248Z,6.34
2018-01-26T19:11:39.675Z,6.29
2018-01-26T19:14:08.136Z,6.27
2018-01-26T19:16:36.562Z,6.24
2018-01-26T19:19:04.993Z,6.23
2018-01-26T19:21:33.637Z,6.27
2018-01-26T19:24:02.042Z,6.23
2018-01-26T19:26:30.473Z,6.21
2018-01-26T19:28:58.964Z,6.19
2018-01-26T19:31:27.371Z,6.17
2018-01-26T19:33:55.801Z,6.15
2018-01-26T19:36:24.267Z,6.10
2018-01-26T19:38:52.685Z,6.03
2018-01-26T19:41:21.178Z,6.00
2018-01-26T19:43:49.845Z,6.03
2018-01-26T19:46:18.243Z,6.07
2018-01-26T19:48:46.642Z,6.03
2018-01-26T19:51:15.078Z,6.07
2018-01-26T19:53:43.500Z,6.10
2018-01-26T19:56:11.910Z,6.10
2018-01-26T19:58:40.347Z,6.02
2018-01-26T20:01:08.790Z,5.96
2018-01-26T20:03:37.206Z,5.89
2018-01-26T20:09:23.866Z,5.88
2018-01-26T20:11:57.970Z,5.86
2018-01-26T20:14:26.388Z,5.77
2018-01-26T20:16:54.817Z,5.74
2018-01-26T20:19:23.303Z,5.69
2018-01-26T20:21:51.724Z,5.65
2018-01-26T20:24:20.171Z,5.63
2018-01-26T20:26:48.633Z,5.64
2018-01-26T20:29:17.049Z,5.61
2018-01-26T20:31:45.490Z,5.62
2018-01-26T20:34:13.965Z,5.64
2018-01-26T20:36:42.370Z,5.67
2018-01-26T20:39:10.775Z,5.64
2018-01-26T20:41:39.237Z,5.63
2018-01-26T20:44:07.629Z,5.63
2018-01-26T20:46:36.013Z,5.62
2018-01-26T20:49:04.449Z,5.53
2018-01-26T20:51:32.842Z,5.54
2018-01-26T20:54:01.285Z,5.55
2018-01-26T20:56:29.967Z,5.49
2018-01-26T20:58:58.397Z,5.42
2018-01-26T21:01:26.790Z,5.38
2018-01-26T21:03:55.256Z,5.40
2018-01-26T21:06:23.660Z,5.33
2018-01-26T21:08:52.055Z,5.30
2018-01-26T21:11:20.501Z,5.37
2018-01-26T21:13:48.920Z,5.39
2018-01-26T21:16:17.341Z,5.38
2018-01-26T21:18:45.815Z,5.37
2018-01-26T21:21:14.229Z,5.36
2018-01-26T21:23:42.656Z,5.33
2018-01-26T21:26:11.109Z,5.33
2018-01-26T21:28:39.542Z,5.25
2018-01-26T21:31:07.951Z,5.27
2018-01-26T21:33:36.412Z,5.22
2018-01-26T21:36:04.827Z,5.22
2018-01-26T21:38:33.220Z,5.21
2018-01-26T21:41:01.661Z,5.20
2018-01-26T21:43:30.049Z,5.14
2018-01-26T21:45:58.433Z,5.14
2018-01-26T21:48:26.897Z,5.15
2018-01-26T21:50:55.317Z,5.11
2018-01-26T21:53:23.730Z,5.04
2018-01-26T21:55:52.183Z,5.03
2018-01-26T21:58:20.598Z,5.06
2018-01-26T22:00:48.996Z,5.08
2018-01-26T22:03:17.518Z,5.04
2018-01-26T22:05:45.969Z,5.01
2018-01-26T22:08:14.426Z,5.02
2018-01-26T22:10:42.889Z,4.99
2018-01-26T22:13:11.331Z,4.93
2018-01-26T22:15:39.729Z,4.92
2018-01-26T22:18:08.196Z,4.89
2018-01-26T22:20:36.620Z,4.84
2018-01-26T22:23:05.009Z,4.86
2018-01-26T22:25:33.461Z,4.86
2018-01-26T22:28:01.881Z,4.86
2018-01-26T22:30:30.296Z,4.91
2018-01-26T22:32:58.776Z,4.87
2018-01-26T22:35:27.188Z,4.85
2018-01-26T22:37:55.590Z,4.82
2018-01-26T22:40:24.026Z,4.77
2018-01-26T22:42:52.460Z,4.85
2018-01-26T22:45:20.849Z,4.83
2018-01-26T22:47:49.309Z,4.77
2018-01-26T22:50:17.714Z,4.75
2018-01-26T22:52:46.119Z,4.79
2018-01-26T22:55:14.579Z,4.80
2018-01-26T22:57:43.006Z,4.79
2018-01-26T23:00:11.434Z,4.80
2018-01-26T23:02:39.866Z,4.77
2018-01-26T23:05:08.323Z,4.77
2018-01-26T23:07:36.728Z,4.78
2018-01-26T23:10:05.177Z,4.80
2018-01-26T23:12:33.566Z,4.83
2018-01-26T23:15:01.958Z,4.88
2018-01-26T23:17:30.404Z,4.91
2018-01-26T23:19:58.812Z,4.93
2018-01-26T23:22:27.256Z,4.95
2018-01-26T23:24:55.702Z,4.94
2018-01-26T23:27:24.093Z,4.97
2018-01-26T23:29:52.548Z,5.00
2018-01-26T23:32:21.022Z,4.98
2018-01-26T23:34:49.444Z,5.01
2018-01-26T23:37:17.850Z,5.05
2018-01-26T23:39:46.305Z,5.03
2018-01-26T23:42:14.706Z,5.04
2018-01-26T23:44:43.107Z,5.03
2018-01-26T23:47:11.587Z,5.04
2018-01-26T23:49:39.997Z,5.08
2018-01-26T23:52:08.412Z,5.09
2018-01-26T23:54:36.878Z,5.08
2018-01-26T23:57:05.305Z,5.10
2018-01-26T23:59:33.712Z,5.08
